Time,TemperatureF,DewpointF,PressureIn,WindDirection,WindDirectionDegrees,WindSpeedMPH,WindSpeedGustMPH,Humidity,HourlyPrecipIn,Conditions,Clouds,dailyrainin,SolarRadiationWatts/m^2,SoftwareType,DateUTC
2013-04-05 00:02:00,74.0,71.0,-100.00,North,355,2.0,-999.0,91,0.00,,,-99.99,0.200000,,2013-04-05 04:02:00,
2013-04-05 00:13:00,74.0,71.0,-100.00,West,280,3.0,-999.0,92,0.00,,,-99.99,0.200000,,2013-04-05 04:13:00,
2013-04-05 00:23:00,74.0,71.0,-100.00,West,280,3.0,-999.0,92,0.00,,,-99.99,0.200000,,2013-04-05 04:23:00,
2013-04-05 00:32:00,74.0,71.0,-100.00,SSW,194,2.0,-999.0,92,0.00,,,-99.99,0.200000,,2013-04-05 04:32:00,
2013-04-05 00:42:00,74.0,71.0,-100.00,NW,310,4.0,-999.0,92,0.03,,,-99.99,0.300000,,2013-04-05 04:42:00,
2013-04-05 00:52:00,74.0,71.0,-100.00,NW,310,4.0,-999.0,92,0.03,,,-99.99,0.300000,,2013-04-05 04:52:00,
2013-04-05 01:02:00,73.0,71.0,-100.00,NNW,328,2.0,-999.0,92,0.00,,,-99.99,0.300000,,2013-04-05 05:02:00,
2013-04-05 01:22:00,73.0,71.0,-100.00,NNW,331,2.0,-999.0,92,0.00,,,-99.99,0.300000,,2013-04-05 05:22:00,
2013-04-05 01:32:00,73.0,71.0,-100.00,North,349,2.0,-999.0,93,0.00,,,-99.99,0.400000,,2013-04-05 05:32:00,
2013-04-05 01:42:00,73.0,71.0,-100.00,NNW,330,6.0,-999.0,93,0.00,,,-99.99,0.300000,,2013-04-05 05:42:00,
2013-04-05 01:53:00,73.0,71.0,-100.00,NNW,330,6.0,-999.0,93,0.00,,,-99.99,0.300000,,2013-04-05 05:53:00,
2013-04-05 02:02:00,71.0,69.0,-100.00,NNW,337,4.0,-999.0,93,0.03,,,-99.99,0.400000,,2013-04-05 06:02:00,
2013-04-05 02:12:00,71.0,69.0,-100.00,NNW,331,8.0,-999.0,93,0.08,,,-99.99,0.500000,,2013-04-05 06:12:00,
2013-04-05 02:22:00,71.0,69.0,-100.00,NNW,331,8.0,-999.0,93,0.08,,,-99.99,0.500000,,2013-04-05 06:22:00,
2013-04-05 02:32:00,68.0,66.0,-100.00,NNW,345,7.0,-999.0,93,0.33,,,-99.99,0.200000,,2013-04-05 06:32:00,
2013-04-05 02:42:00,67.0,65.0,-100.00,NW,323,6.0,-999.0,93,0.76,,,-99.99,0.100000,,2013-04-05 06:42:00,
2013-04-05 02:52:00,67.0,65.0,-100.00,NW,323,6.0,-999.0,93,0.76,,,-99.99,0.100000,,2013-04-05 06:52:00,
2013-04-05 03:02:00,67.0,65.0,-100.00,NNW,334,3.0,-999.0,93,0.08,,,-99.99,0.200000,,2013-04-05 07:02:00,
2013-04-05 03:12:00,67.0,66.0,-100.00,WSW,256,5.0,-999.0,94,0.00,,,-99.99,0.100000,,2013-04-05 07:12:00,
2013-04-05 03:22:00,67.0,66.0,-100.00,WSW,256,5.0,-999.0,94,0.00,,,-99.99,0.100000,,2013-04-05 07:22:00,
2013-04-05 03:32:00,68.0,66.0,-100.00,SSE,167,6.0,-999.0,93,0.22,,,-99.99,0.100000,,2013-04-05 07:32:00,
2013-04-05 03:42:00,67.0,65.0,-100.00,ENE,67,3.0,-999.0,94,0.00,,,-99.99,0.000000,,2013-04-05 07:42:00,
2013-04-05 03:53:00,67.0,65.0,-100.00,ENE,67,3.0,-999.0,94,0.00,,,-99.99,0.000000,,2013-04-05 07:53:00,
2013-04-05 04:02:00,67.0,66.0,-100.00,West,261,2.0,-999.0,94,0.03,,,-99.99,0.100000,,2013-04-05 08:02:00,
2013-04-05 04:13:00,68.0,66.0,-100.00,WSW,240,2.0,-999.0,94,0.00,,,-99.99,0.200000,,2013-04-05 08:13:00,
2013-04-05 04:22:00,68.0,66.0,-100.00,WSW,240,2.0,-999.0,94,0.00,,,-99.99,0.200000,,2013-04-05 08:22:00,
2013-04-05 04:32:00,68.0,66.0,-100.00,WSW,245,3.0,-999.0,94,0.00,,,-99.99,0.100000,,2013-04-05 08:32:00,
2013-04-05 04:43:00,68.0,66.0,-100.00,SW,229,3.0,-999.0,94,0.27,,,-99.99,0.100000,,2013-04-05 08:43:00,
2013-04-05 04:52:00,68.0,66.0,-100.00,SW,229,3.0,-999.0,94,0.27,,,-99.99,0.100000,,2013-04-05 08:52:00,
2013-04-05 05:02:00,68.0,66.0,-100.00,WSW,243,4.0,-999.0,94,0.22,,,-99.99,0.000000,,2013-04-05 09:02:00,
2013-04-05 05:12:00,67.0,66.0,-100.00,West,270,2.0,-999.0,94,0.30,,,-99.99,0.000000,,2013-04-05 09:12:00,
2013-04-05 05:22:00,67.0,66.0,-100.00,West,270,2.0,-999.0,94,0.30,,,-99.99,0.000000,,2013-04-05 09:22:00,
2013-04-05 05:33:00,67.0,65.0,-100.00,ESE,118,2.0,-999.0,94,0.03,,,-99.99,0.000000,,2013-04-05 09:33:00,
2013-04-05 05:43:00,67.0,65.0,-100.00,SW,218,1.0,-999.0,94,0.03,,,-99.99,0.000000,,2013-04-05 09:43:00,
2013-04-05 05:53:00,67.0,65.0,-100.00,SW,218,1.0,-999.0,94,0.03,,,-99.99,0.000000,,2013-04-05 09:53:00,
2013-04-05 06:03:00,67.0,65.0,-100.00,SE,144,3.0,-999.0,95,0.14,,,-99.99,0.000000,,2013-04-05 10:03:00,
2013-04-05 06:13:00,67.0,66.0,-100.00,SSE,164,6.0,-999.0,95,0.11,,,-99.99,0.100000,,2013-04-05 10:13:00,
2013-04-05 06:23:00,67.0,66.0,-100.00,SSE,164,6.0,-999.0,95,0.11,,,-99.99,0.100000,,2013-04-05 10:23:00,
2013-04-05 06:33:00,67.0,65.0,-100.00,South,171,7.0,-999.0,95,0.11,,,-99.99,0.100000,,2013-04-05 10:33:00,
2013-04-05 06:43:00,67.0,65.0,-100.00,SSW,193,3.0,-999.0,95,0.19,,,-99.99,0.000000,,2013-04-05 10:43:00,
2013-04-05 06:53:00,67.0,65.0,-100.00,SSW,193,3.0,-999.0,95,0.19,,,-99.99,0.000000,,2013-04-05 10:53:00,
2013-04-05 07:03:00,67.0,65.0,-100.00,SSE,163,4.0,-999.0,95,0.19,,,-99.99,0.000000,,2013-04-05 11:03:00,
2013-04-05 07:13:00,67.0,66.0,-100.00,SSE,163,6.0,-999.0,95,0.19,,,-99.99,0.000000,,2013-04-05 11:13:00,
2013-04-05 07:22:00,67.0,66.0,-100.00,SSE,163,6.0,-999.0,95,0.19,,,-99.99,0.000000,,2013-04-05 11:22:00,
2013-04-05 07:33:00,67.0,66.0,-100.00,SSE,153,5.0,-999.0,95,0.11,,,-99.99,0.200000,,2013-04-05 11:33:00,
2013-04-05 07:42:00,67.0,66.0,-100.00,ESE,104,5.0,-999.0,95,0.11,,,-99.99,1.300000,,2013-04-05 11:42:00,
2013-04-05 07:52:00,67.0,66.0,-100.00,ESE,104,5.0,-999.0,95,0.11,,,-99.99,1.300000,,2013-04-05 11:52:00,
2013-04-05 08:02:00,67.0,66.0,-100.00,SSE,163,5.0,-999.0,95,0.03,,,-99.99,5.900000,,2013-04-05 12:02:00,
2013-04-05 08:12:00,67.0,66.0,-100.00,SSE,166,5.0,-999.0,95,0.00,,,-99.99,25.400000,,2013-04-05 12:12:00,
2013-04-05 08:22:00,67.0,66.0,-100.00,SSE,166,5.0,-999.0,95,0.00,,,-99.99,25.400000,,2013-04-05 12:22:00,
2013-04-05 08:32:00,68.0,66.0,-100.00,SSE,154,9.0,-999.0,94,0.03,,,-99.99,45.400002,,2013-04-05 12:32:00,
2013-04-05 08:42:00,68.0,67.0,-100.00,SSE,166,7.0,-999.0,94,0.00,,,-99.99,53.900002,,2013-04-05 12:42:00,
2013-04-05 08:52:00,68.0,67.0,-100.00,SSE,166,7.0,-999.0,94,0.00,,,-99.99,53.900002,,2013-04-05 12:52:00,
2013-04-05 09:02:00,69.0,67.0,-100.00,South,178,6.0,-999.0,92,0.00,,,-99.99,68.599998,,2013-04-05 13:02:00,
2013-04-05 09:12:00,70.0,67.0,-100.00,South,191,6.0,-999.0,91,0.00,,,-99.99,70.699997,,2013-04-05 13:12:00,
2013-04-05 09:23:00,70.0,67.0,-100.00,South,191,6.0,-999.0,91,0.00,,,-99.99,70.699997,,2013-04-05 13:23:00,
2013-04-05 09:32:00,70.0,67.0,-100.00,South,179,5.0,-999.0,90,0.00,,,-99.99,71.599998,,2013-04-05 13:32:00,
2013-04-05 09:42:00,71.0,67.0,-100.00,SSW,193,6.0,-999.0,89,0.00,,,-99.99,87.699997,,2013-04-05 13:42:00,
2013-04-05 09:52:00,71.0,67.0,-100.00,SSW,193,6.0,-999.0,89,0.00,,,-99.99,87.699997,,2013-04-05 13:52:00,
2013-04-05 10:03:00,71.0,68.0,-100.00,SSW,210,4.0,-999.0,88,0.00,,,-99.99,107.300003,,2013-04-05 14:03:00,
2013-04-05 10:12:00,72.0,68.0,-100.00,SSW,212,3.0,-999.0,88,0.00,,,-99.99,90.599998,,2013-04-05 14:12:00,
2013-04-05 10:23:00,72.0,68.0,-100.00,SSW,212,3.0,-999.0,88,0.00,,,-99.99,90.599998,,2013-04-05 14:23:00,
2013-04-05 10:36:00,72.0,68.0,-100.00,NE,53,2.0,-999.0,88,0.00,,,-99.99,84.400002,,2013-04-05 14:36:00,
2013-04-05 10:43:00,72.0,69.0,-100.00,North,7,3.0,-999.0,88,0.00,,,-99.99,152.899994,,2013-04-05 14:43:00,
2013-04-05 10:54:00,72.0,69.0,-100.00,North,7,3.0,-999.0,88,0.00,,,-99.99,152.899994,,2013-04-05 14:54:00,
2013-04-05 11:02:00,73.0,69.0,-100.00,NNW,340,4.0,-999.0,88,0.00,,,-99.99,176.699997,,2013-04-05 15:02:00,
2013-04-05 11:13:00,73.0,69.0,-100.00,NW,323,4.0,-999.0,87,0.00,,,-99.99,225.399994,,2013-04-05 15:13:00,
2013-04-05 11:23:00,73.0,69.0,-100.00,NW,323,4.0,-999.0,87,0.00,,,-99.99,225.399994,,2013-04-05 15:23:00,
2013-04-05 11:33:00,73.0,68.0,-100.00,NW,317,5.0,-999.0,86,0.00,,,-99.99,207.600006,,2013-04-05 15:33:00,
2013-04-05 11:43:00,73.0,68.0,-100.00,NW,316,4.0,-999.0,85,0.00,,,-99.99,122.099998,,2013-04-05 15:43:00,
2013-04-05 11:54:00,73.0,68.0,-100.00,NW,316,4.0,-999.0,85,0.00,,,-99.99,122.099998,,2013-04-05 15:54:00,
2013-04-05 12:03:00,72.0,68.0,-100.00,NW,312,3.0,-999.0,86,0.00,,,-99.99,162.300003,,2013-04-05 16:03:00,
2013-04-05 12:14:00,72.0,68.0,-100.00,NW,312,3.0,-999.0,86,0.00,,,-99.99,162.300003,,2013-04-05 16:14:00,
2013-04-05 12:23:00,72.0,68.0,-100.00,WNW,285,3.0,-999.0,87,0.00,,,-99.99,131.199997,,2013-04-05 16:23:00,
2013-04-05 12:33:00,73.0,68.0,-100.00,WSW,248,3.0,-999.0,86,0.00,,,-99.99,164.199997,,2013-04-05 16:33:00,
2013-04-05 12:42:00,73.0,68.0,-100.00,SW,216,4.0,-999.0,85,0.00,,,-99.99,139.899994,,2013-04-05 16:42:00,
2013-04-05 12:53:00,73.0,68.0,-100.00,SW,216,4.0,-999.0,85,0.00,,,-99.99,139.899994,,2013-04-05 16:53:00,
2013-04-05 13:03:00,73.0,68.0,-100.00,WSW,241,5.0,-999.0,85,0.03,,,-99.99,186.699997,,2013-04-05 17:03:00,
2013-04-05 13:13:00,73.0,68.0,-100.00,WSW,241,5.0,-999.0,84,0.00,,,-99.99,220.300003,,2013-04-05 17:13:00,
2013-04-05 13:23:00,73.0,68.0,-100.00,WSW,241,5.0,-999.0,84,0.00,,,-99.99,220.300003,,2013-04-05 17:23:00,
2013-04-05 13:32:00,73.0,68.0,-100.00,WSW,237,6.0,-999.0,85,0.00,,,-99.99,143.399994,,2013-04-05 17:32:00,
2013-04-05 13:45:00,72.0,68.0,-100.00,SW,217,8.0,-999.0,86,0.00,,,-99.99,66.800003,,2013-04-05 17:45:00,
2013-04-05 13:53:00,72.0,68.0,-100.00,SW,217,8.0,-999.0,86,0.00,,,-99.99,66.800003,,2013-04-05 17:53:00,
2013-04-05 14:02:00,72.0,68.0,-100.00,WSW,254,8.0,-999.0,86,0.00,,,-99.99,78.699997,,2013-04-05 18:02:00,
2013-04-05 14:13:00,72.0,67.0,-100.00,West,265,6.0,-999.0,85,0.00,,,-99.99,99.099998,,2013-04-05 18:13:00,
2013-04-05 14:23:00,72.0,67.0,-100.00,West,265,6.0,-999.0,85,0.00,,,-99.99,99.099998,,2013-04-05 18:23:00,
2013-04-05 14:33:00,72.0,67.0,-100.00,WSW,241,7.0,-999.0,85,0.00,,,-99.99,37.200001,,2013-04-05 18:33:00,
2013-04-05 14:43:00,72.0,67.0,-100.00,West,266,8.0,-999.0,84,0.00,,,-99.99,35.000000,,2013-04-05 18:43:00,
2013-04-05 14:53:00,72.0,67.0,-100.00,West,266,8.0,-999.0,84,0.00,,,-99.99,35.000000,,2013-04-05 18:53:00,
2013-04-05 15:02:00,71.0,67.0,-100.00,West,274,9.0,-999.0,85,0.00,,,-99.99,26.900000,,2013-04-05 19:02:00,
2013-04-05 15:13:00,70.0,65.0,-100.00,West,267,7.0,-999.0,83,0.27,,,-99.99,12.200000,,2013-04-05 19:13:00,
2013-04-05 15:23:00,70.0,65.0,-100.00,West,267,7.0,-999.0,83,0.27,,,-99.99,12.200000,,2013-04-05 19:23:00,
2013-04-05 15:33:00,68.0,64.0,-100.00,West,261,7.0,-999.0,86,0.33,,,-99.99,27.700001,,2013-04-05 19:33:00,
2013-04-05 15:42:00,68.0,65.0,-100.00,WSW,245,8.0,-999.0,89,0.08,,,-99.99,41.400002,,2013-04-05 19:42:00,
2013-04-05 15:53:00,68.0,65.0,-100.00,WSW,245,8.0,-999.0,89,0.08,,,-99.99,41.400002,,2013-04-05 19:53:00,
2013-04-05 16:02:00,68.0,65.0,-100.00,WSW,253,8.0,-999.0,91,0.19,,,-99.99,31.000000,,2013-04-05 20:02:00,
2013-04-05 16:11:00,67.0,65.0,-100.00,WSW,258,8.0,-999.0,92,0.14,,,-99.99,113.400002,,2013-04-05 20:11:00,
2013-04-05 16:22:00,67.0,65.0,-100.00,WSW,258,8.0,-999.0,92,0.14,,,-99.99,113.400002,,2013-04-05 20:22:00,
2013-04-05 16:33:00,67.0,65.0,-100.00,SW,234,6.0,-999.0,92,0.03,,,-99.99,216.699997,,2013-04-05 20:33:00,
2013-04-05 16:42:00,68.0,65.0,-100.00,SW,225,7.0,-999.0,93,0.00,,,-99.99,62.200001,,2013-04-05 20:42:00,
2013-04-05 16:53:00,68.0,65.0,-100.00,SW,225,7.0,-999.0,93,0.00,,,-99.99,62.200001,,2013-04-05 20:53:00,
2013-04-05 17:02:00,68.0,66.0,-100.00,SW,217,8.0,-999.0,93,0.11,,,-99.99,27.799999,,2013-04-05 21:02:00,
2013-04-05 17:13:00,67.0,66.0,-100.00,SW,215,8.0,-999.0,93,0.14,,,-99.99,18.000000,,2013-04-05 21:13:00,
2013-04-05 17:23:00,67.0,66.0,-100.00,SW,215,8.0,-999.0,93,0.14,,,-99.99,18.000000,,2013-04-05 21:23:00,
2013-04-05 17:33:00,67.0,65.0,-100.00,SW,218,7.0,-999.0,93,0.11,,,-99.99,17.799999,,2013-04-05 21:33:00,
2013-04-05 17:55:00,67.0,65.0,-100.00,SW,229,8.0,-999.0,94,0.03,,,-99.99,23.299999,,2013-04-05 21:55:00,
2013-04-05 18:03:00,67.0,65.0,-100.00,WSW,243,6.0,-999.0,94,0.08,,,-99.99,21.600000,,2013-04-05 22:03:00,
2013-04-05 18:13:00,67.0,65.0,-100.00,West,271,4.0,-999.0,94,0.03,,,-99.99,27.400000,,2013-04-05 22:13:00,
2013-04-05 18:23:00,67.0,65.0,-100.00,West,271,4.0,-999.0,94,0.03,,,-99.99,27.400000,,2013-04-05 22:23:00,
2013-04-05 18:33:00,67.0,66.0,-100.00,NW,305,3.0,-999.0,94,0.00,,,-99.99,34.000000,,2013-04-05 22:33:00,
2013-04-05 18:43:00,67.0,66.0,-100.00,WNW,296,5.0,-999.0,95,0.00,,,-99.99,36.099998,,2013-04-05 22:43:00,
2013-04-05 18:53:00,67.0,66.0,-100.00,WNW,296,5.0,-999.0,95,0.00,,,-99.99,36.099998,,2013-04-05 22:53:00,
2013-04-05 19:03:00,67.0,66.0,-100.00,WNW,296,4.0,-999.0,95,0.00,,,-99.99,34.000000,,2013-04-05 23:03:00,
2013-04-05 19:13:00,67.0,66.0,-100.00,NW,304,4.0,-999.0,95,0.00,,,-99.99,104.599998,,2013-04-05 23:13:00,
2013-04-05 19:22:00,67.0,66.0,-100.00,NW,304,4.0,-999.0,95,0.00,,,-99.99,104.599998,,2013-04-05 23:22:00,
2013-04-05 19:32:00,68.0,66.0,-100.00,WNW,288,5.0,-999.0,94,0.00,,,-99.99,81.900002,,2013-04-05 23:32:00,
2013-04-05 19:42:00,68.0,66.0,-100.00,WSW,252,3.0,-999.0,94,0.00,,,-99.99,56.099998,,2013-04-05 23:42:00,
2013-04-05 19:53:00,68.0,66.0,-100.00,WSW,252,3.0,-999.0,94,0.00,,,-99.99,56.099998,,2013-04-05 23:53:00,
2013-04-05 20:02:00,68.0,66.0,-100.00,West,264,5.0,-999.0,94,0.00,,,-99.99,34.099998,,2013-04-06 00:02:00,
2013-04-05 20:13:00,68.0,66.0,-100.00,WNW,285,6.0,-999.0,94,0.00,,,-99.99,5.100000,,2013-04-06 00:13:00,
2013-04-05 20:23:00,68.0,66.0,-100.00,WNW,285,6.0,-999.0,94,0.00,,,-99.99,5.100000,,2013-04-06 00:23:00,
2013-04-05 20:33:00,67.0,66.0,-100.00,WNW,294,5.0,-999.0,94,0.00,,,-99.99,0.000000,,2013-04-06 00:33:00,
2013-04-05 20:42:00,67.0,66.0,-100.00,West,280,4.0,-999.0,94,0.00,,,-99.99,0.000000,,2013-04-06 00:42:00,
2013-04-05 20:52:00,67.0,66.0,-100.00,West,280,4.0,-999.0,94,0.00,,,-99.99,0.000000,,2013-04-06 00:52:00,
2013-04-05 21:02:00,67.0,66.0,-100.00,West,269,4.0,-999.0,94,0.00,,,-99.99,0.000000,,2013-04-06 01:02:00,
2013-04-05 21:13:00,67.0,66.0,-100.00,WSW,258,3.0,-999.0,94,0.00,,,-99.99,0.000000,,2013-04-06 01:13:00,
2013-04-05 21:22:00,67.0,66.0,-100.00,WSW,258,3.0,-999.0,94,0.00,,,-99.99,0.000000,,2013-04-06 01:22:00,
2013-04-05 21:33:00,67.0,65.0,-100.00,WSW,258,3.0,-999.0,94,0.00,,,-99.99,0.000000,,2013-04-06 01:33:00,
2013-04-05 21:43:00,67.0,65.0,-100.00,West,270,4.0,-999.0,95,0.00,,,-99.99,0.000000,,2013-04-06 01:43:00,
2013-04-05 21:53:00,67.0,65.0,-100.00,West,270,4.0,-999.0,95,0.00,,,-99.99,0.000000,,2013-04-06 01:53:00,
2013-04-05 22:02:00,67.0,66.0,-100.00,West,261,4.0,-999.0,95,0.00,,,-99.99,0.000000,,2013-04-06 02:02:00,
2013-04-05 22:12:00,67.0,66.0,-100.00,WSW,255,3.0,-999.0,95,0.00,,,-99.99,0.000000,,2013-04-06 02:12:00,
2013-04-05 22:22:00,67.0,66.0,-100.00,WSW,255,3.0,-999.0,95,0.00,,,-99.99,0.000000,,2013-04-06 02:22:00,
2013-04-05 22:32:00,67.0,66.0,-100.00,West,259,3.0,-999.0,95,0.00,,,-99.99,0.000000,,2013-04-06 02:32:00,
2013-04-05 22:42:00,67.0,66.0,-100.00,West,276,4.0,-999.0,95,0.00,,,-99.99,0.000000,,2013-04-06 02:42:00,
2013-04-05 22:53:00,67.0,66.0,-100.00,West,276,4.0,-999.0,95,0.00,,,-99.99,0.000000,,2013-04-06 02:53:00,
2013-04-05 23:02:00,68.0,66.0,-100.00,West,265,4.0,-999.0,95,0.00,,,-99.99,0.000000,,2013-04-06 03:02:00,
2013-04-05 23:12:00,68.0,67.0,-100.00,WSW,257,2.0,-999.0,95,0.00,,,-99.99,0.000000,,2013-04-06 03:12:00,
2013-04-05 23:22:00,68.0,67.0,-100.00,WSW,257,2.0,-999.0,95,0.00,,,-99.99,0.000000,,2013-04-06 03:22:00,
2013-04-05 23:34:00,68.0,67.0,-100.00,WNW,285,3.0,-999.0,95,0.00,,,-99.99,0.000000,,2013-04-06 03:34:00,
2013-04-05 23:43:00,68.0,66.0,-100.00,WNW,292,4.0,-999.0,95,0.00,,,-99.99,0.000000,,2013-04-06 03:43:00,
2013-04-05 23:54:00,68.0,66.0,-100.00,WNW,292,4.0,-999.0,95,0.00,,,-99.99,0.000000,,2013-04-06 03:54:00,